• Join FlightAware (Why Join?)
  • Login
  • US Flag 
03:43AM EDT


 

Airport Tracker/Info


-or-


 

Live Flight TrackerFlight Track Log ✈ FIN666 ✈ 03-Oct-2013 ✈ EKCH / CPH - EFHK / HEL

Flight Track Log - Related Links

Times and Time Zones

All times are in EDT time to prevent confusion due to time zone crossing. See the FIN666 flight status page for this flight to view local times or setup timezone preferences in your user account.

Time Position Orientation Groundspeed Altitude Reporting Facility
EDT Latitude Longitude Course Direction KTS MPH feet Rate Location/Type
07:23AM 55.8244 13.0824 49° Northeast  Level Estimated
07:24AM 55.8929 13.2255 49° Northeast  Level Estimated
07:25AM 55.9613 13.3692 50° Northeast  Level Estimated
07:26AM 56.0294 13.5134 50° Northeast  Level Estimated
07:27AM 56.0974 13.6580 50° Northeast  Level Estimated
07:28AM 56.1652 13.8032 50° Northeast  Level Estimated
07:29AM 56.2329 13.9489 50° Northeast  Level Estimated
07:30AM 56.3004 14.0951 50° Northeast  Level Estimated
07:31AM 56.3677 14.2418 50° Northeast  Level Estimated
07:32AM 56.4348 14.3891 50° Northeast  Level Estimated
07:33AM 56.5018 14.5368 51° Northeast  Level Estimated
07:34AM 56.5686 14.6851 51° Northeast  Level Estimated
07:35AM 56.6352 14.8340 51° Northeast  Level Estimated
07:36AM 56.7016 14.9833 51° Northeast  Level Estimated
07:37AM 56.7679 15.1332 51° Northeast  Level Estimated
07:38AM 56.8340 15.2835 51° Northeast  Level Estimated
07:39AM 56.8998 15.4345 51° Northeast  Level Estimated
07:40AM 56.9656 15.5859 51° Northeast  Level Estimated
07:41AM 57.0311 15.7379 52° Northeast  Level Estimated
07:42AM 57.0964 15.8904 52° Northeast  Level Estimated
07:43AM 57.1616 16.0435 52° Northeast  Level Estimated
07:44AM 57.2266 16.1971 52° Northeast  Level Estimated
07:45AM 57.2913 16.3513 52° Northeast  Level Estimated
07:46AM 57.3559 16.5060 52° Northeast  Level Estimated
07:47AM 57.4221 16.6654 52° Northeast  Level Estimated
07:48AM 57.4880 16.8254 52° Northeast  Level Estimated
07:49AM 57.5537 16.9860 53° Northeast  Level Estimated
07:50AM 57.6193 17.1472 53° Northeast  Level Estimated
07:51AM 57.6846 17.3089 53° Northeast  Level Estimated
07:52AM 57.7497 17.4713 53° Northeast  Level Estimated
07:53AM 57.8146 17.6342 53° Northeast  Level Estimated
07:54AM 57.8793 17.7977 53° Northeast  Level Estimated
07:55AM 57.9438 17.9618 53° Northeast  Level Estimated
07:56AM 58.0081 18.1265 54° Northeast  Level Estimated
07:57AM 58.0722 18.2917 54° Northeast  Level Estimated
07:58AM 58.1360 18.4576 54° Northeast  Level Estimated
07:59AM 58.1996 18.6241 54° Northeast  Level Estimated
08:00AM 58.2630 18.7911 54° Northeast  Level Estimated
08:01AM 58.3262 18.9588 54° Northeast  Level Estimated
08:02AM 58.3892 19.1271 54° Northeast  Level Estimated
08:03AM 58.4520 19.2959 55° Northeast  Level Estimated
08:04AM 58.5145 19.4654 55° Northeast  Level Estimated
08:05AM 58.5768 19.6355 55° Northeast  Level Estimated
08:06AM 58.6389 19.8061 55° Northeast  Level Estimated
08:07AM 58.7007 19.9774 55° Northeast  Level Estimated
08:08AM 58.7624 20.1493 55° Northeast  Level Estimated
08:09AM 58.8238 20.3218 55° Northeast  Level Estimated
08:10AM 58.8849 20.4949 56° Northeast  Level Estimated
08:11AM 58.9459 20.6686 56° Northeast  Level Estimated
08:12AM 59.0066 20.8430 56° Northeast  Level Estimated
08:13AM 59.0671 21.0179 56° Northeast  Level Estimated
08:14AM 59.1273 21.1935 56° Northeast  Level Estimated
08:15AM 59.1873 21.3696 56° Northeast  Level Estimated
08:16AM 59.2470 21.5464 56° Northeast  Level Estimated
08:17AM 59.3065 21.7239 57° Northeast  Level Estimated
08:18AM 59.3658 21.9019 57° Northeast  Level Estimated
08:19AM 59.4248 22.0806 57° Northeast  Level Estimated
08:20AM 59.4836 22.2598 57° Northeast  Level Estimated
08:21AM 59.5421 22.4398 57° Northeast  Level Estimated
08:22AM 59.6004 22.6203 57° Northeast  Level Estimated
08:23AM 59.6585 22.8014 58° Northeast  Level Estimated
08:24AM 59.7163 22.9832 58° Northeast  Level Estimated
08:25AM 59.7738 23.1656 58° Northeast  Level Estimated
08:26AM 59.8311 23.3487 58° Northeast  Level Estimated
08:27AM 59.8881 23.5324 58° Northeast  Level Estimated
08:28AM 59.9449 23.7167 58° Northeast  Level Estimated
08:29AM 60.0014 23.9016 59° Northeast  Level Estimated
08:30AM 60.0577 24.0872 59° Northeast  Level Estimated
08:31AM 60.1136 24.2734 59° Northeast  Level Estimated
08:32AM 60.1694 24.4602 59° Northeast  Level Estimated
08:33AM 60.2248 24.6476 59° Northeast  Level Estimated
08:34AM 60.2800 24.8358 59° Northeast  Level Estimated
08:35AM 60.3172 24.9633 59° Northeast  Level Estimated
08:36AM 60.3172 24.9633 37° Northeast  Level Estimated
08:37AM 60.3172 24.9633 37° Northeast  Level Estimated
08:38AM 60.3172 24.9633 37° Northeast  Level Estimated
08:39AM 60.3172 24.9633 37° Northeast  Level Estimated
08:40AM 60.3172 24.9633 37° Northeast  Level Estimated
08:41AM 60.3172 24.9633 37° Northeast  Level Estimated
08:42AM 60.3172 24.9633 37° Northeast  Level Estimated
08:43AM 60.3172 24.9633 37° Northeast  Level Estimated
08:44AM 60.3172 24.9633 37° Northeast  Level Estimated
08:45AM 60.3172 24.9633 37° Northeast  Level Estimated